Terminal Aerodrome Forecast
Issued by NWS

Home | Current Version | Previous Version | Text Only | Print | Product List | Glossary On
Versions: 1 2 3 4 5 6 7 8 9 10 11 12 13 14 15 16 17 18 19 20 21
000
FTUS44 KLIX 020500
TAFHUM
TAF
KHUM 020528Z 0206/0306 14005KT P6SM SCT025 BKN050
     FM021000 15004KT P6SM BKN025
     FM021200 15005KT P6SM VCSH BKN015
     FM021500 16007KT P6SM VCTS BKN025CB
     FM022300 16007KT P6SM VCSH SCT025 OVC250=

USA.gov is the U.S. government's official web portal to all federal, state and local government web resources and services.